Time;durP1;ratioP1;P1;durP2;ratioP2;P2;SDS_P1;SDS_P2;PMS_P1;PMS_P2;Temp;Humidity;BMP_temperature;BMP_pressure;BME280_temperature;BME280_humidity;BME280_pressure;Samples;Min_cycle;Max_cycle;Signal;HPM_P1;HPM_P2
2022/05/01 00:00:58;;;;;;;7.30;2.63;;;;;;;;;;4959138;28;20047;-59
2022/05/01 00:03:30;;;;;;;3.42;2.63;;;;;;;;;;4950271;28;20067;-59
2022/05/01 00:06:04;;;;;;;4.97;3.00;;;;;;;;;;4952585;28;20038;-60
2022/05/01 00:08:29;;;;;;;;;;;;;;;;;;4953771;28;20047;-54
2022/05/01 00:10:55;;;;;;;6.30;2.75;;;;;;;;;;4953992;28;20347;-60
2022/05/01 00:13:22;;;;;;;3.55;2.78;;;;;;;;;;4971134;28;20453;-59
2022/05/01 00:15:48;;;;;;;5.10;3.17;;;;;;;;;;4960468;28;20051;-60
2022/05/01 00:18:14;;;;;;;6.50;2.92;;;;;;;;;;4953280;28;20050;-59
2022/05/01 00:20:40;;;;;;;4.65;2.75;;;;;;;;;;4960612;28;20438;-62
2022/05/01 00:23:05;;;;;;;6.22;3.20;;;;;;;;;;4957475;28;20197;-58
2022/05/01 00:25:32;;;;;;;9.77;3.10;;;;;;;;;;4936203;28;20532;-61
2022/05/01 00:27:58;;;;;;;6.22;2.92;;;;;;;;;;4949943;28;20070;-59
2022/05/01 00:30:26;;;;;;;6.32;3.42;;;;;;;;;;4951321;28;20051;-59
2022/05/01 00:38:21;;;;;;;7.25;3.05;;;;;;;;;;4953507;28;20421;-60
2022/05/01 00:40:46;;;;;;;9.25;3.63;;;;;;;;;;4955362;28;20026;-59
2022/05/01 00:43:12;;;;;;;3.95;2.97;;;;;;;;;;4950720;28;20183;-60
2022/05/01 00:45:37;;;;;;;4.38;2.95;;;;;;;;;;4955807;28;20047;-58
2022/05/01 00:48:03;;;;;;;4.40;2.80;;;;;;;;;;4956264;28;20214;-59
2022/05/01 00:50:29;;;;;;;4.95;2.78;;;;;;;;;;4951631;28;20560;-59
2022/05/01 00:52:54;;;;;;;4.90;3.10;;;;;;;;;;4953227;28;20158;-60
2022/05/01 00:55:21;;;;;;;6.40;3.13;;;;;;;;;;4952016;28;20051;-58
2022/05/01 00:57:47;;;;;;;3.30;3.00;;;;;;;;;;4957013;28;20185;-60
2022/05/01 01:00:16;;;;;;;4.93;2.88;;;;;;;;;;4952923;28;20146;-59
2022/05/01 01:02:41;;;;;;;6.55;3.28;;;;;;;;;;4952534;28;20039;-59
2022/05/01 01:05:07;;;;;;;6.43;2.90;;;;;;;;;;4953983;28;20452;-59
2022/05/01 01:07:34;;;;;;;4.03;3.05;;;;;;;;;;4952123;28;20079;-61
2022/05/01 01:10:00;;;;;;;5.20;3.10;;;;;;;;;;4951127;28;20043;-59
2022/05/01 01:15:11;;;;;;;4.30;2.85;;;;;;;;;;4953399;28;20081;-60
2022/05/01 01:17:41;;;;;;;3.92;3.40;;;;;;;;;;4942913;28;20515;-60
2022/05/01 01:20:17;;;;;;;5.65;3.70;;;;;;;;;;4953170;28;20454;-60
2022/05/01 01:22:44;;;;;;;6.35;2.97;;;;;;;;;;4952190;28;20139;-61
2022/05/01 01:25:10;;;;;;;7.53;3.40;;;;;;;;;;4950756;28;20043;-58
2022/05/01 01:27:42;;;;;;;4.70;3.40;;;;;;;;;;4952140;28;20043;-58
2022/05/01 01:32:54;;;;;;;4.72;3.30;;;;;;;;;;4947323;28;20062;-59
2022/05/01 01:35:22;;;;;;;5.93;3.30;;;;;;;;;;4931471;29;20438;-59
2022/05/01 01:37:49;;;;;;;9.43;3.42;;;;;;;;;;4929956;29;20438;-59
2022/05/01 01:40:20;;;;;;;5.78;3.10;;;;;;;;;;4928709;29;20055;-60
2022/05/01 01:42:46;;;;;;;4.82;3.33;;;;;;;;;;4934659;29;20453;-58
2022/05/01 01:45:13;;;;;;;5.85;3.47;;;;;;;;;;4928990;29;20130;-59
2022/05/01 01:47:38;;;;;;;4.97;3.50;;;;;;;;;;4939123;29;20043;-58
2022/05/01 01:50:05;;;;;;;7.88;3.67;;;;;;;;;;4933890;29;20036;-59
2022/05/01 01:52:31;;;;;;;5.72;3.63;;;;;;;;;;4931907;29;20048;-59
2022/05/01 01:54:59;;;;;;;9.02;3.60;;;;;;;;;;4935201;29;20378;-61
2022/05/01 01:57:25;;;;;;;6.25;3.55;;;;;;;;;;4934445;29;20051;-63
2022/05/01 01:59:50;;;;;;;6.85;3.70;;;;;;;;;;4933466;29;20059;-59
2022/05/01 02:02:16;;;;;;;6.18;4.13;;;;;;;;;;4930718;29;20035;-59
2022/05/01 02:04:41;;;;;;;4.82;3.60;;;;;;;;;;4934821;29;20493;-61
2022/05/01 02:07:06;;;;;;;5.55;3.90;;;;;;;;;;4932909;29;20453;-61
2022/05/01 02:09:36;;;;;;;5.82;3.80;;;;;;;;;;4936377;29;20445;-59
2022/05/01 02:12:02;;;;;;;5.47;3.67;;;;;;;;;;4933473;29;20340;-59
2022/05/01 02:14:27;;;;;;;6.97;4.00;;;;;;;;;;4935096;29;20110;-59
2022/05/01 02:16:55;;;;;;;6.18;4.05;;;;;;;;;;4936449;29;20759;-59
2022/05/01 02:19:20;;;;;;;9.25;4.25;;;;;;;;;;4921612;29;20047;-59
2022/05/01 02:21:47;;;;;;;7.50;4.10;;;;;;;;;;4935424;29;20035;-59
2022/05/01 02:24:12;;;;;;;6.40;4.07;;;;;;;;;;4916759;29;20047;-59
2022/05/01 02:26:38;;;;;;;6.72;4.18;;;;;;;;;;4934797;29;20336;-59
2022/05/01 02:29:12;;;;;;;7.25;4.13;;;;;;;;;;4934238;29;20031;-59
2022/05/01 02:31:38;;;;;;;;;;;;;;;;;;4957798;28;20059;-59
2022/05/01 02:34:04;;;;;;;7.78;4.00;;;;;;;;;;4955999;28;20376;-59
2022/05/01 02:36:29;;;;;;;6.00;3.92;;;;;;;;;;4956918;28;20098;-60
2022/05/01 02:38:54;;;;;;;5.95;4.05;;;;;;;;;;4954514;28;20059;-60
2022/05/01 02:41:20;;;;;;;8.45;4.10;;;;;;;;;;4953147;28;20051;-60
2022/05/01 02:43:46;;;;;;;5.68;3.45;;;;;;;;;;4935256;29;20023;-60
2022/05/01 02:46:13;;;;;;;6.15;4.00;;;;;;;;;;4936342;29;20140;-60
2022/05/01 02:48:38;;;;;;;5.07;3.85;;;;;;;;;;4937591;29;20055;-60
2022/05/01 02:51:04;;;;;;;5.78;4.40;;;;;;;;;;4937881;29;20062;-61
2022/05/01 02:53:31;;;;;;;6.75;4.10;;;;;;;;;;4936769;29;20047;-60
2022/05/01 02:56:00;;;;;;;5.32;4.22;;;;;;;;;;4937439;29;20039;-64
2022/05/01 02:58:27;;;;;;;8.57;4.15;;;;;;;;;;4939438;29;20141;-64
2022/05/01 03:00:52;;;;;;;9.52;4.30;;;;;;;;;;4940023;29;20063;-63
2022/05/01 03:03:18;;;;;;;6.43;3.83;;;;;;;;;;4936315;29;20074;-64
2022/05/01 03:05:43;;;;;;;5.50;3.78;;;;;;;;;;4936786;29;20047;-63
2022/05/01 03:08:12;;;;;;;8.35;3.97;;;;;;;;;;4935876;29;20043;-64
2022/05/01 03:10:38;;;;;;;9.38;4.30;;;;;;;;;;4924806;29;20109;-64
2022/05/01 03:13:03;;;;;;;8.27;4.57;;;;;;;;;;4939475;29;20153;-63
2022/05/01 03:15:29;;;;;;;7.03;3.50;;;;;;;;;;4935411;29;20128;-63
2022/05/01 03:23:21;;;;;;;6.40;3.95;;;;;;;;;;4939431;29;20085;-65
2022/05/01 03:25:47;;;;;;;7.75;4.07;;;;;;;;;;4940927;29;20039;-66
2022/05/01 03:28:13;;;;;;;11.43;4.63;;;;;;;;;;4957466;28;20086;-65
2022/05/01 03:30:38;;;;;;;11.35;4.60;;;;;;;;;;4955673;28;20046;-65
2022/05/01 03:33:06;;;;;;;8.98;4.60;;;;;;;;;;4960953;28;20126;-65
2022/05/01 03:35:35;;;;;;;5.30;4.25;;;;;;;;;;4960340;28;20066;-66
2022/05/01 03:38:03;;;;;;;5.53;4.25;;;;;;;;;;4961067;28;20117;-64
2022/05/01 03:40:29;;;;;;;8.15;4.57;;;;;;;;;;4938365;29;20419;-65
2022/05/01 03:42:55;;;;;;;8.57;4.25;;;;;;;;;;4933766;28;20051;-64
2022/05/01 03:45:20;;;;;;;8.15;4.25;;;;;;;;;;4937214;29;20150;-64
2022/05/01 03:47:46;;;;;;;7.72;4.20;;;;;;;;;;4939150;28;20130;-63
2022/05/01 03:50:11;;;;;;;6.18;3.88;;;;;;;;;;4938656;29;20110;-63
2022/05/01 03:52:37;;;;;;;8.02;4.40;;;;;;;;;;4936325;29;20204;-68
2022/05/01 03:55:03;;;;;;;8.20;4.70;;;;;;;;;;4937317;29;20058;-66
2022/05/01 03:57:28;;;;;;;6.32;4.97;;;;;;;;;;4939412;29;20047;-65
2022/05/01 03:59:54;;;;;;;6.32;4.13;;;;;;;;;;4941971;28;20057;-65
2022/05/01 04:02:19;;;;;;;9.13;4.40;;;;;;;;;;4934338;29;20047;-66
2022/05/01 04:04:48;;;;;;;8.00;4.85;;;;;;;;;;4937197;29;20063;-66
2022/05/01 04:07:14;;;;;;;7.35;4.07;;;;;;;;;;4934529;28;20060;-66
2022/05/01 04:09:39;;;;;;;6.97;4.80;;;;;;;;;;4935200;29;20040;-66
2022/05/01 04:12:06;;;;;;;8.10;4.80;;;;;;;;;;4939485;28;20384;-66
2022/05/01 04:14:32;;;;;;;9.38;4.18;;;;;;;;;;4939445;29;20070;-66
2022/05/01 04:16:59;;;;;;;6.22;4.38;;;;;;;;;;4937363;29;20458;-66
2022/05/01 04:19:25;;;;;;;6.13;4.40;;;;;;;;;;4937424;28;20055;-66
2022/05/01 04:21:51;;;;;;;7.68;4.65;;;;;;;;;;4941233;28;20473;-66
2022/05/01 04:24:16;;;;;;;8.85;5.00;;;;;;;;;;4934320;28;20054;-66
2022/05/01 04:26:42;;;;;;;7.55;4.50;;;;;;;;;;4937600;28;20058;-65
2022/05/01 04:31:51;;;;;;;9.70;4.57;;;;;;;;;;4936443;29;20070;-63
2022/05/01 04:34:17;;;;;;;7.63;4.45;;;;;;;;;;4934964;28;20039;-64
2022/05/01 04:36:43;;;;;;;7.70;4.25;;;;;;;;;;4939320;28;20054;-64
2022/05/01 04:39:08;;;;;;;6.78;4.18;;;;;;;;;;4935703;28;20138;-65
2022/05/01 04:41:34;;;;;;;7.80;4.15;;;;;;;;;;4938329;28;20056;-65
2022/05/01 04:43:59;;;;;;;5.72;4.32;;;;;;;;;;4937296;29;20054;-64
2022/05/01 04:46:25;;;;;;;6.88;4.03;;;;;;;;;;4950806;28;20059;-65
2022/05/01 04:48:50;;;;;;;7.47;4.10;;;;;;;;;;4956572;28;20050;-65
2022/05/01 04:51:16;;;;;;;4.68;3.67;;;;;;;;;;4953579;28;20158;-64
2022/05/01 04:53:41;;;;;;;6.00;4.55;;;;;;;;;;4957344;28;20066;-65
2022/05/01 04:58:50;;;;;;;7.13;4.65;;;;;;;;;;4956221;28;20061;-66
2022/05/01 05:01:17;;;;;;;6.90;4.32;;;;;;;;;;4957143;28;20457;-63
2022/05/01 05:03:43;;;;;;;9.38;4.13;;;;;;;;;;4957720;28;20443;-64
2022/05/01 05:06:08;;;;;;;10.40;4.28;;;;;;;;;;4953537;28;20063;-65
2022/05/01 05:11:18;;;;;;;7.70;4.20;;;;;;;;;;4955051;28;20184;-65
2022/05/01 05:13:43;;;;;;;10.15;4.35;;;;;;;;;;4958703;28;20176;-65
2022/05/01 05:16:13;;;;;;;7.70;4.35;;;;;;;;;;4954613;28;20055;-65
2022/05/01 05:18:42;;;;;;;11.07;4.82;;;;;;;;;;4955304;28;20051;-64
2022/05/01 05:21:07;;;;;;;10.38;5.57;;;;;;;;;;4952639;28;20410;-65
2022/05/01 05:23:33;;;;;;;5.65;4.50;;;;;;;;;;4955707;28;20057;-64
2022/05/01 05:25:59;;;;;;;6.05;4.57;;;;;;;;;;4956843;28;20078;-64
2022/05/01 05:28:25;;;;;;;8.32;4.80;;;;;;;;;;4956797;28;20068;-63
2022/05/01 05:30:51;;;;;;;7.85;4.47;;;;;;;;;;4952167;28;20473;-64
2022/05/01 05:33:17;;;;;;;5.25;3.65;;;;;;;;;;4956513;28;20047;-63
2022/05/01 05:35:43;;;;;;;7.82;4.07;;;;;;;;;;4955260;28;20517;-63
2022/05/01 05:38:09;;;;;;;8.00;3.97;;;;;;;;;;4954048;28;20105;-65
2022/05/01 05:40:34;;;;;;;6.50;3.85;;;;;;;;;;4953300;28;20190;-64
2022/05/01 05:43:00;;;;;;;8.63;4.55;;;;;;;;;;4954444;28;20125;-64
2022/05/01 05:45:25;;;;;;;11.15;3.95;;;;;;;;;;4956105;28;20098;-64
2022/05/01 05:47:50;;;;;;;6.90;3.50;;;;;;;;;;4956079;28;20047;-65
2022/05/01 05:50:16;;;;;;;7.38;3.55;;;;;;;;;;4952844;28;20086;-65
2022/05/01 05:52:42;;;;;;;8.80;4.07;;;;;;;;;;4957940;28;20038;-64
2022/05/01 05:55:08;;;;;;;6.68;3.90;;;;;;;;;;4952282;28;20043;-65
2022/05/01 05:57:33;;;;;;;8.02;4.53;;;;;;;;;;4956980;28;20043;-65
2022/05/01 05:59:59;;;;;;;6.07;3.40;;;;;;;;;;4951443;28;20059;-65
2022/05/01 06:02:24;;;;;;;8.40;4.60;;;;;;;;;;4953140;28;20047;-65
2022/05/01 06:04:50;;;;;;;5.65;4.15;;;;;;;;;;4955640;28;20037;-57
2022/05/01 06:07:15;;;;;;;5.72;3.75;;;;;;;;;;4955751;28;20489;-56
2022/05/01 06:09:41;;;;;;;7.10;3.70;;;;;;;;;;4952674;28;20058;-58
2022/05/01 06:12:09;;;;;;;5.43;3.53;;;;;;;;;;4951210;28;20051;-57
2022/05/01 06:14:35;;;;;;;5.65;3.72;;;;;;;;;;4955751;28;20126;-60
2022/05/01 06:17:00;;;;;;;7.13;3.45;;;;;;;;;;4949647;28;20441;-57
2022/05/01 06:19:26;;;;;;;6.57;3.63;;;;;;;;;;4954164;28;20049;-57
2022/05/01 06:21:51;;;;;;;6.00;3.85;;;;;;;;;;4957157;28;20080;-57
2022/05/01 06:24:16;;;;;;;6.35;3.47;;;;;;;;;;4954019;28;20050;-56
2022/05/01 06:26:42;;;;;;;4.60;3.30;;;;;;;;;;4950937;28;20425;-58
2022/05/01 06:29:08;;;;;;;6.75;3.78;;;;;;;;;;4959461;28;20027;-56
2022/05/01 06:31:34;;;;;;;5.47;3.67;;;;;;;;;;4954849;28;20074;-54
2022/05/01 06:34:00;;;;;;;5.85;3.80;;;;;;;;;;4942926;28;20525;-58
2022/05/01 06:36:25;;;;;;;7.72;3.63;;;;;;;;;;4936631;29;20055;-56
2022/05/01 06:38:51;;;;;;;5.18;3.75;;;;;;;;;;4935008;29;20062;-52
2022/05/01 06:41:17;;;;;;;6.00;3.30;;;;;;;;;;4937009;29;20036;-56
2022/05/01 06:43:43;;;;;;;4.60;3.45;;;;;;;;;;4937865;29;20044;-55
2022/05/01 06:46:08;;;;;;;5.38;3.58;;;;;;;;;;4935083;29;20058;-55
2022/05/01 06:48:34;;;;;;;6.68;3.28;;;;;;;;;;4935934;29;20559;-55
2022/05/01 06:51:00;;;;;;;6.97;3.47;;;;;;;;;;4940420;29;20512;-55
2022/05/01 06:53:25;;;;;;;5.93;3.40;;;;;;;;;;4935531;29;20023;-55
2022/05/01 06:55:53;;;;;;;6.00;3.55;;;;;;;;;;4939990;29;20234;-55
2022/05/01 06:58:19;;;;;;;5.68;3.38;;;;;;;;;;4936450;29;20067;-58
2022/05/01 07:00:45;;;;;;;5.50;3.33;;;;;;;;;;4935419;29;20047;-53
2022/05/01 07:03:10;;;;;;;11.00;3.80;;;;;;;;;;4934403;29;20040;-57
2022/05/01 07:05:36;;;;;;;8.65;3.80;;;;;;;;;;4934551;29;20508;-53
2022/05/01 07:08:01;;;;;;;7.97;4.57;;;;;;;;;;4934174;29;20528;-55
2022/05/01 07:10:26;;;;;;;8.13;4.40;;;;;;;;;;4936286;29;20055;-56
2022/05/01 07:12:52;;;;;;;8.52;4.03;;;;;;;;;;4938903;29;20051;-56
2022/05/01 07:15:17;;;;;;;6.82;3.90;;;;;;;;;;4935885;29;20159;-56
2022/05/01 07:17:43;;;;;;;6.57;4.10;;;;;;;;;;4939116;29;20047;-56
2022/05/01 07:20:09;;;;;;;7.38;4.13;;;;;;;;;;4936790;29;20162;-57
2022/05/01 07:22:35;;;;;;;9.30;3.80;;;;;;;;;;4921634;29;20024;-52
2022/05/01 07:25:01;;;;;;;5.93;3.65;;;;;;;;;;4937656;29;20056;-54
2022/05/01 07:27:27;;;;;;;9.25;3.47;;;;;;;;;;4939163;29;20470;-57
2022/05/01 07:29:52;;;;;;;6.18;3.53;;;;;;;;;;4936223;29;20040;-57
2022/05/01 07:32:17;;;;;;;8.45;3.67;;;;;;;;;;4930856;29;20466;-55
2022/05/01 07:34:43;;;;;;;5.40;3.80;;;;;;;;;;4940796;29;20079;-55
2022/05/01 07:37:08;;;;;;;4.45;3.78;;;;;;;;;;4937025;29;20055;-54
2022/05/01 07:39:34;;;;;;;5.50;3.63;;;;;;;;;;4935630;29;20065;-57
2022/05/01 07:41:59;;;;;;;9.27;3.95;;;;;;;;;;4936128;29;20048;-56
2022/05/01 07:44:25;;;;;;;6.97;3.65;;;;;;;;;;4937695;29;20085;-55
2022/05/01 07:46:51;;;;;;;8.93;3.63;;;;;;;;;;4938130;29;20066;-51
2022/05/01 07:49:17;;;;;;;8.25;3.55;;;;;;;;;;4936668;29;20054;-49
2022/05/01 07:51:43;;;;;;;5.43;3.72;;;;;;;;;;4938689;29;20051;-53
2022/05/01 07:54:08;;;;;;;5.45;3.25;;;;;;;;;;4940754;29;20114;-54
2022/05/01 07:56:34;;;;;;;4.65;3.72;;;;;;;;;;4935133;29;20457;-57
2022/05/01 07:59:00;;;;;;;7.70;3.58;;;;;;;;;;4937763;29;20027;-56
2022/05/01 08:01:27;;;;;;;5.68;3.22;;;;;;;;;;4936419;29;20471;-57
2022/05/01 08:06:37;;;;;;;6.93;3.53;;;;;;;;;;4936303;29;20526;-55
2022/05/01 08:09:03;;;;;;;6.85;3.42;;;;;;;;;;4939665;29;20445;-56
2022/05/01 08:11:29;;;;;;;6.18;3.58;;;;;;;;;;4934313;29;20087;-54
2022/05/01 08:13:55;;;;;;;5.72;3.22;;;;;;;;;;4934619;29;20428;-55
2022/05/01 08:16:21;;;;;;;7.05;3.60;;;;;;;;;;4932136;29;20490;-55
2022/05/01 08:21:32;;;;;;;6.93;3.63;;;;;;;;;;4933551;29;20485;-56
2022/05/01 08:23:59;;;;;;;4.82;3.50;;;;;;;;;;4934357;29;20440;-56
2022/05/01 08:26:25;;;;;;;5.43;3.58;;;;;;;;;;4934921;29;20024;-54
2022/05/01 08:28:52;;;;;;;4.82;3.80;;;;;;;;;;4935141;29;20076;-54
2022/05/01 08:31:17;;;;;;;9.18;4.22;;;;;;;;;;4934910;29;20126;-55
2022/05/01 08:33:43;;;;;;;6.90;3.78;;;;;;;;;;4935788;29;20401;-55
2022/05/01 08:36:08;;;;;;;8.93;3.92;;;;;;;;;;4931668;29;20044;-55
2022/05/01 08:38:37;;;;;;;7.50;3.88;;;;;;;;;;4942725;28;20042;-57
2022/05/01 08:41:04;;;;;;;5.68;3.78;;;;;;;;;;4955439;28;20130;-58
2022/05/01 08:43:30;;;;;;;8.82;4.03;;;;;;;;;;4951120;28;20039;-55
2022/05/01 08:46:17;;;;;;;5.45;3.72;;;;;;;;;;4954978;28;20055;-57
2022/05/01 08:48:52;;;;;;;7.85;3.83;;;;;;;;;;4952453;28;20093;-55
2022/05/01 08:51:20;;;;;;;8.57;4.30;;;;;;;;;;4946349;28;20146;-54
2022/05/01 08:53:48;;;;;;;8.02;4.00;;;;;;;;;;4933818;28;20058;-58
2022/05/01 08:56:15;;;;;;;10.65;4.38;;;;;;;;;;4933011;29;20048;-55
2022/05/01 08:58:41;;;;;;;7.25;3.88;;;;;;;;;;4932629;29;20047;-56
2022/05/01 09:01:11;;;;;;;7.15;4.63;;;;;;;;;;4933095;29;20050;-55
2022/05/01 09:03:39;;;;;;;8.13;3.72;;;;;;;;;;4934787;29;20082;-54
2022/05/01 09:06:05;;;;;;;10.32;4.55;;;;;;;;;;4934570;29;20149;-56
2022/05/01 09:08:30;;;;;;;7.05;4.10;;;;;;;;;;4933826;29;20158;-58
2022/05/01 09:10:55;;;;;;;7.90;4.13;;;;;;;;;;4935795;29;20469;-52
2022/05/01 09:13:25;;;;;;;8.55;4.15;;;;;;;;;;4930975;29;20141;-56
2022/05/01 09:15:52;;;;;;;7.60;3.88;;;;;;;;;;4933431;29;20146;-59
2022/05/01 09:18:18;;;;;;;7.20;4.40;;;;;;;;;;4935282;29;20063;-53
2022/05/01 09:21:07;;;;;;;7.78;4.55;;;;;;;;;;4931929;29;20078;-55
2022/05/01 09:23:42;;;;;;;6.40;4.57;;;;;;;;;;4917170;29;20090;-54
2022/05/01 09:26:10;;;;;;;6.90;4.43;;;;;;;;;;4934341;29;20031;-56
2022/05/01 09:28:46;;;;;;;7.63;4.47;;;;;;;;;;4953308;28;20631;-54
2022/05/01 09:31:11;;;;;;;8.70;4.72;;;;;;;;;;4950704;28;20042;-53
2022/05/01 09:33:37;;;;;;;10.65;4.32;;;;;;;;;;4933875;28;20449;-54
2022/05/01 09:36:02;;;;;;;9.60;4.45;;;;;;;;;;4953933;28;20142;-53
2022/05/01 09:38:28;;;;;;;7.47;4.75;;;;;;;;;;4951718;28;20551;-54
2022/05/01 09:40:57;;;;;;;7.53;4.82;;;;;;;;;;4956138;28;20356;-55
2022/05/01 09:43:37;;;;;;;7.32;4.70;;;;;;;;;;4953280;28;20049;-55
2022/05/01 09:46:23;;;;;;;6.60;4.38;;;;;;;;;;4954784;28;20051;-57
2022/05/01 09:49:13;;;;;;;8.35;4.70;;;;;;;;;;4954093;28;20126;-56
2022/05/01 09:51:51;;;;;;;7.53;4.28;;;;;;;;;;4955560;28;20118;-56
2022/05/01 09:54:27;;;;;;;10.07;4.47;;;;;;;;;;4950672;28;20057;-53
2022/05/01 09:56:57;;;;;;;7.15;4.88;;;;;;;;;;4947805;28;20138;-55
2022/05/01 09:59:24;;;;;;;8.60;4.45;;;;;;;;;;4948988;28;20058;-56
2022/05/01 10:02:06;;;;;;;6.47;4.55;;;;;;;;;;4951439;28;20042;-54
2022/05/01 10:04:36;;;;;;;10.30;4.53;;;;;;;;;;4949693;28;20039;-55
2022/05/01 10:07:03;;;;;;;7.78;4.05;;;;;;;;;;4954942;28;20411;-55
2022/05/01 10:09:30;;;;;;;6.50;4.47;;;;;;;;;;4955324;28;20059;-56
2022/05/01 10:12:04;;;;;;;6.45;4.50;;;;;;;;;;4952851;28;20054;-57
2022/05/01 10:14:30;;;;;;;5.63;3.83;;;;;;;;;;4967210;28;20557;-56
2022/05/01 10:16:56;;;;;;;6.65;4.40;;;;;;;;;;4953153;28;20549;-52
2022/05/01 10:19:23;;;;;;;9.98;4.57;;;;;;;;;;4957265;28;20063;-55
2022/05/01 10:21:56;;;;;;;6.45;3.95;;;;;;;;;;4955124;28;20051;-56
2022/05/01 10:24:23;;;;;;;8.63;3.88;;;;;;;;;;4951628;28;20081;-54
2022/05/01 10:26:56;;;;;;;9.63;4.13;;;;;;;;;;4954497;28;20078;-56
2022/05/01 10:29:31;;;;;;;6.97;4.00;;;;;;;;;;4955869;28;20035;-54
2022/05/01 10:32:21;;;;;;;7.85;4.45;;;;;;;;;;4956864;28;20606;-54
2022/05/01 10:35:11;;;;;;;8.80;3.90;;;;;;;;;;4960470;28;20066;-53
2022/05/01 10:38:02;;;;;;;6.88;4.15;;;;;;;;;;4957573;28;20134;-60
2022/05/01 10:40:43;;;;;;;6.43;3.95;;;;;;;;;;4953237;28;20477;-52
2022/05/01 10:43:35;;;;;;;9.13;4.28;;;;;;;;;;4951076;28;20050;-55
2022/05/01 10:46:21;;;;;;;7.22;4.07;;;;;;;;;;4953320;28;20082;-52
2022/05/01 10:48:48;;;;;;;7.60;3.95;;;;;;;;;;4943382;28;20044;-57
2022/05/01 10:51:31;;;;;;;8.57;3.95;;;;;;;;;;4926478;28;20891;-53
2022/05/01 10:54:14;;;;;;;7.70;3.92;;;;;;;;;;4954965;28;20071;-57
2022/05/01 10:56:42;;;;;;;5.47;3.90;;;;;;;;;;4949674;28;20128;-57
2022/05/01 10:59:30;;;;;;;8.50;4.10;;;;;;;;;;4952888;28;20039;-55
2022/05/01 11:02:06;;;;;;;5.00;3.83;;;;;;;;;;4951285;28;20435;-55
2022/05/01 11:04:41;;;;;;;7.07;4.18;;;;;;;;;;4945790;28;20509;-55
2022/05/01 11:07:10;;;;;;;6.30;3.83;;;;;;;;;;4960201;28;20051;-55
2022/05/01 11:09:37;;;;;;;8.20;3.95;;;;;;;;;;4958996;28;20100;-56
2022/05/01 11:12:06;;;;;;;8.73;3.60;;;;;;;;;;4947072;28;20224;-53
2022/05/01 11:14:39;;;;;;;8.20;3.97;;;;;;;;;;4934694;28;20498;-52
2022/05/01 11:17:06;;;;;;;7.82;3.42;;;;;;;;;;4951300;28;20047;-55
2022/05/01 11:19:46;;;;;;;10.27;3.90;;;;;;;;;;4956327;28;20438;-55
2022/05/01 11:22:12;;;;;;;7.65;3.80;;;;;;;;;;4952851;28;20443;-54
2022/05/01 11:24:44;;;;;;;6.05;3.63;;;;;;;;;;4953693;28;20126;-52
2022/05/01 11:27:17;;;;;;;6.10;3.63;;;;;;;;;;4954640;28;20164;-55
2022/05/01 11:30:07;;;;;;;8.93;3.67;;;;;;;;;;4932746;29;20071;-55
2022/05/01 11:32:44;;;;;;;7.07;4.30;;;;;;;;;;4925513;29;20040;-57
2022/05/01 11:35:11;;;;;;;6.45;3.53;;;;;;;;;;4930335;29;20058;-57
2022/05/01 11:37:58;;;;;;;6.95;3.47;;;;;;;;;;4954061;28;20134;-55
2022/05/01 11:40:26;;;;;;;11.52;3.75;;;;;;;;;;4953479;28;20039;-55
2022/05/01 11:42:53;;;;;;;5.28;3.33;;;;;;;;;;4954706;28;20046;-55
2022/05/01 11:45:19;;;;;;;6.78;3.65;;;;;;;;;;4949336;28;20055;-55
2022/05/01 11:47:49;;;;;;;7.70;3.75;;;;;;;;;;4953164;28;20039;-57
2022/05/01 11:50:19;;;;;;;8.68;3.80;;;;;;;;;;4953970;28;20401;-55
2022/05/01 11:52:49;;;;;;;5.70;3.53;;;;;;;;;;4954170;28;20066;-55
2022/05/01 11:55:18;;;;;;;9.45;3.97;;;;;;;;;;4951926;28;20047;-55
2022/05/01 12:03:29;;;;;;;3.97;3.22;;;;;;;;;;4950775;28;20057;-54
2022/05/01 12:05:55;;;;;;;8.27;3.38;;;;;;;;;;4953986;28;20151;-55
2022/05/01 12:08:21;;;;;;;6.93;3.08;;;;;;;;;;4952213;28;20043;-53
2022/05/01 12:10:47;;;;;;;5.05;3.58;;;;;;;;;;4955757;28;20051;-55
2022/05/01 12:13:22;;;;;;;4.63;3.25;;;;;;;;;;4951720;28;20055;-54
2022/05/01 12:15:52;;;;;;;4.13;3.28;;;;;;;;;;4951207;28;20047;-55
2022/05/01 12:18:18;;;;;;;6.90;3.13;;;;;;;;;;4954863;28;20051;-56
2022/05/01 12:20:44;;;;;;;6.60;3.75;;;;;;;;;;4955996;28;20082;-56
2022/05/01 12:23:11;;;;;;;7.50;3.40;;;;;;;;;;4952151;28;20035;-56
2022/05/01 12:25:40;;;;;;;7.07;3.42;;;;;;;;;;4933591;29;20047;-56
2022/05/01 12:28:08;;;;;;;5.82;3.08;;;;;;;;;;4935271;28;20055;-55
2022/05/01 12:30:34;;;;;;;5.18;3.08;;;;;;;;;;4935337;29;20142;-57
2022/05/01 12:32:59;;;;;;;4.55;3.35;;;;;;;;;;4935957;29;20047;-56
2022/05/01 12:35:25;;;;;;;5.07;3.40;;;;;;;;;;4932598;29;20040;-55
2022/05/01 12:37:50;;;;;;;6.07;3.25;;;;;;;;;;4934832;29;20090;-56
2022/05/01 12:45:53;;;;;;;6.85;3.42;;;;;;;;;;4941704;28;20366;-55
2022/05/01 12:48:20;;;;;;;5.55;3.22;;;;;;;;;;4934952;29;21117;-55
2022/05/01 12:50:50;;;;;;;5.18;2.97;;;;;;;;;;4936871;28;20035;-54
2022/05/01 12:53:27;;;;;;;5.20;3.33;;;;;;;;;;4934768;29;20043;-56
2022/05/01 12:55:53;;;;;;;7.28;3.10;;;;;;;;;;4940064;29;20050;-55
2022/05/01 12:58:33;;;;;;;6.18;3.30;;;;;;;;;;4934193;29;20147;-58
2022/05/01 13:01:00;;;;;;;6.80;3.50;;;;;;;;;;4927844;29;20066;-57
2022/05/01 13:03:37;;;;;;;6.13;3.13;;;;;;;;;;4933579;29;20048;-57
2022/05/01 13:06:04;;;;;;;5.05;3.22;;;;;;;;;;4935169;29;20151;-57
2022/05/01 13:09:02;;;;;;;4.95;3.22;;;;;;;;;;4934312;28;20107;-59
2022/05/01 13:11:33;;;;;;;7.57;2.92;;;;;;;;;;4926442;28;20043;-56
2022/05/01 13:14:09;;;;;;;8.70;3.30;;;;;;;;;;4930649;29;20181;-56
2022/05/01 13:16:34;;;;;;;8.55;3.40;;;;;;;;;;4937180;29;20478;-57
2022/05/01 13:19:19;;;;;;;5.00;2.88;;;;;;;;;;4932283;28;20387;-56
2022/05/01 13:21:52;;;;;;;5.60;3.42;;;;;;;;;;4932534;29;20210;-52
2022/05/01 13:24:35;;;;;;;5.07;3.17;;;;;;;;;;4931197;28;20047;-55
2022/05/01 13:27:09;;;;;;;5.60;3.20;;;;;;;;;;4934394;29;20512;-54
2022/05/01 13:29:36;;;;;;;7.45;3.88;;;;;;;;;;4930480;28;20442;-55
2022/05/01 13:32:06;;;;;;;8.52;3.30;;;;;;;;;;4938006;29;20031;-55
2022/05/01 13:34:32;;;;;;;5.47;3.03;;;;;;;;;;4931444;28;20070;-55
2022/05/01 13:37:02;;;;;;;4.70;3.13;;;;;;;;;;4935670;28;20146;-55
2022/05/01 13:44:44;;;;;;;4.22;3.13;;;;;;;;;;4932239;28;20492;-56
2022/05/01 13:45:00;;;;;;;7.43;3.40;;;;;;;;;;4935627;29;20113;-54
2022/05/01 13:47:26;;;;;;;7.90;3.30;;;;;;;;;;4931794;28;20031;-54
2022/05/01 13:49:51;;;;;;;5.05;3.08;;;;;;;;;;4933498;29;20043;-55
2022/05/01 13:52:17;;;;;;;5.25;3.00;;;;;;;;;;4931766;28;20181;-57
2022/05/01 13:54:45;;;;;;;8.38;3.60;;;;;;;;;;4933870;28;20047;-55
2022/05/01 13:57:10;;;;;;;3.60;2.80;;;;;;;;;;4932697;29;20099;-56
2022/05/01 13:59:36;;;;;;;6.00;2.90;;;;;;;;;;4931357;29;20052;-61
2022/05/01 14:02:03;;;;;;;5.60;3.40;;;;;;;;;;4931760;29;20028;-54
2022/05/01 14:04:28;;;;;;;5.53;3.25;;;;;;;;;;4929607;29;20055;-55
2022/05/01 14:06:55;;;;;;;7.18;3.50;;;;;;;;;;4934993;29;20099;-55
2022/05/01 14:09:20;;;;;;;7.80;3.10;;;;;;;;;;4935766;28;20082;-53
2022/05/01 14:11:54;;;;;;;8.10;3.15;;;;;;;;;;4947970;28;20047;-56
2022/05/01 14:14:20;;;;;;;5.82;3.38;;;;;;;;;;4947565;28;20042;-56
2022/05/01 14:16:47;;;;;;;4.75;2.90;;;;;;;;;;4955334;28;20031;-55
2022/05/01 14:19:17;;;;;;;8.07;3.05;;;;;;;;;;4956796;28;20065;-57
2022/05/01 14:21:46;;;;;;;5.55;2.83;;;;;;;;;;4955548;28;20047;-54
2022/05/01 14:24:12;;;;;;;5.15;3.13;;;;;;;;;;4953334;28;20039;-52
2022/05/01 14:26:37;;;;;;;5.50;3.33;;;;;;;;;;4952590;28;20066;-55
2022/05/01 14:29:02;;;;;;;6.00;3.10;;;;;;;;;;4955177;28;20319;-56
2022/05/01 14:31:46;;;;;;;10.20;3.47;;;;;;;;;;4936880;28;20161;-55
2022/05/01 14:34:26;;;;;;;6.28;3.00;;;;;;;;;;4926963;29;20047;-55
2022/05/01 14:36:56;;;;;;;4.18;2.90;;;;;;;;;;4934093;29;20123;-55
2022/05/01 14:39:24;;;;;;;7.13;3.20;;;;;;;;;;4932927;29;20154;-55
2022/05/01 14:41:51;;;;;;;4.25;2.80;;;;;;;;;;4944965;28;20059;-54
2022/05/01 14:44:32;;;;;;;5.22;3.08;;;;;;;;;;4933302;29;20047;-53
2022/05/01 14:47:04;;;;;;;5.68;3.15;;;;;;;;;;4934603;29;20038;-54
2022/05/01 14:49:50;;;;;;;5.32;3.33;;;;;;;;;;4934118;29;20134;-54
2022/05/01 14:52:17;;;;;;;6.85;2.88;;;;;;;;;;4935815;29;20182;-55
2022/05/01 14:54:46;;;;;;;7.10;2.97;;;;;;;;;;4936075;29;20180;-58
2022/05/01 14:57:13;;;;;;;5.22;2.92;;;;;;;;;;4938668;28;20172;-54
2022/05/01 15:08:07;;;;;;;6.47;3.10;;;;;;;;;;4935502;29;20300;-56
2022/05/01 15:10:40;;;;;;;5.25;2.70;;;;;;;;;;4936446;29;20043;-55
2022/05/01 15:13:08;;;;;;;6.43;2.90;;;;;;;;;;4935269;29;20066;-56
2022/05/01 15:15:49;;;;;;;6.85;4.03;;;;;;;;;;4922761;28;21256;-55
2022/05/01 15:18:19;;;;;;;4.18;2.58;;;;;;;;;;4948467;28;20071;-55
2022/05/01 15:20:54;;;;;;;4.55;2.55;;;;;;;;;;4934670;29;20051;-55
2022/05/01 15:23:32;;;;;;;5.80;2.95;;;;;;;;;;4933829;29;20042;-58
2022/05/01 15:26:00;;;;;;;5.15;2.55;;;;;;;;;;4933107;29;20054;-53
2022/05/01 15:28:28;;;;;;;3.80;2.38;;;;;;;;;;4933133;29;20051;-56
2022/05/01 15:30:54;;;;;;;5.60;2.83;;;;;;;;;;4932772;28;20099;-55
2022/05/01 15:35:54;;;;;;;6.07;2.27;;;;;;;;;;4933281;28;20062;-54
2022/05/01 15:38:37;;;;;;;4.90;2.60;;;;;;;;;;4935419;28;20035;-52
2022/05/01 15:41:15;;;;;;;4.47;2.65;;;;;;;;;;4952585;28;20438;-55
2022/05/01 15:43:42;;;;;;;8.27;3.63;;;;;;;;;;4933608;29;20198;-54
2022/05/01 15:46:21;;;;;;;7.03;2.83;;;;;;;;;;4931014;29;20039;-56